createdAt,value
2023-10-14T00:01:55.283Z,78.50
2023-10-14T00:04:22.576Z,78.40
2023-10-14T00:06:49.826Z,78.20
2023-10-14T00:09:16.942Z,77.90
2023-10-14T00:11:45.398Z,78.60
2023-10-14T00:14:12.470Z,79.20
2023-10-14T00:16:39.543Z,79.20
2023-10-14T00:19:06.729Z,79.20
2023-10-14T00:21:35.072Z,80.30
2023-10-14T00:24:02.849Z,80.30
2023-10-14T00:26:30.255Z,79.90
2023-10-14T00:28:59.465Z,79.30
2023-10-14T00:31:26.636Z,78.80
2023-10-14T00:33:54.044Z,78.60
2023-10-14T00:36:22.296Z,79.50
2023-10-14T00:38:49.722Z,79.80
2023-10-14T00:41:16.819Z,80.00
2023-10-14T00:43:43.958Z,79.70
2023-10-14T00:46:13.419Z,79.40
2023-10-14T00:48:41.192Z,79.30
2023-10-14T00:51:09.712Z,78.90
2023-10-14T00:53:37.597Z,80.80
2023-10-14T00:56:05.178Z,80.30
2023-10-14T00:58:32.414Z,80.00
2023-10-14T01:00:59.633Z,79.90
2023-10-14T01:03:29.578Z,80.60
2023-10-14T01:05:56.844Z,80.00
2023-10-14T01:08:24.878Z,80.40
2023-10-14T01:10:54.342Z,80.70
2023-10-14T01:13:21.605Z,81.40
2023-10-14T01:15:48.870Z,81.60
2023-10-14T01:18:16.033Z,81.40
2023-10-14T01:20:45.058Z,81.00
2023-10-14T01:23:13.601Z,80.90
2023-10-14T01:25:40.893Z,81.60
2023-10-14T01:28:08.211Z,81.90
2023-10-14T01:30:35.427Z,81.30
2023-10-14T01:33:02.533Z,82.00
2023-10-14T01:35:29.763Z,83.30
2023-10-14T01:37:58.179Z,83.90
2023-10-14T01:40:28.155Z,84.70
2023-10-14T01:42:56.333Z,85.30
2023-10-14T01:45:24.048Z,85.80
2023-10-14T01:47:51.198Z,86.50
2023-10-14T01:50:18.256Z,87.00
2023-10-14T01:52:45.384Z,86.50
2023-10-14T01:55:12.652Z,87.00
2023-10-14T01:57:41.151Z,86.10
2023-10-14T02:00:09.201Z,84.80
2023-10-14T02:02:36.341Z,85.00
2023-10-14T02:05:03.814Z,85.40
2023-10-14T02:07:30.967Z,86.80
2023-10-14T02:09:58.144Z,86.10
2023-10-14T02:12:25.323Z,85.80
2023-10-14T02:14:53.939Z,85.20
2023-10-14T02:17:21.232Z,84.70
2023-10-14T02:19:48.347Z,84.60
2023-10-14T02:22:15.496Z,84.60
2023-10-14T02:24:43.055Z,84.10
2023-10-14T02:27:10.255Z,84.40
2023-10-14T02:29:38.026Z,83.60
2023-10-14T02:32:06.881Z,84.00
2023-10-14T02:34:34.009Z,84.30
2023-10-14T02:37:01.133Z,84.60
2023-10-14T02:39:28.488Z,83.90
2023-10-14T02:41:56.315Z,83.70
2023-10-14T02:44:23.403Z,83.50
2023-10-14T02:46:50.519Z,83.60
2023-10-14T02:49:19.010Z,83.50
2023-10-14T02:51:46.986Z,83.50
2023-10-14T02:54:15.795Z,83.50
2023-10-14T02:56:43.223Z,84.00
2023-10-14T02:59:10.344Z,84.60
2023-10-14T03:01:41.252Z,84.60
2023-10-14T03:04:08.769Z,85.00
2023-10-14T03:06:37.250Z,84.60
2023-10-14T03:09:04.641Z,84.60
2023-10-14T03:11:31.686Z,84.60
2023-10-14T03:13:58.867Z,84.60
2023-10-14T03:16:25.993Z,84.20
2023-10-14T03:18:53.067Z,84.00
2023-10-14T03:21:20.164Z,84.00
2023-10-14T03:23:48.583Z,84.40
2023-10-14T03:26:15.642Z,83.90
2023-10-14T03:28:43.234Z,84.80
2023-10-14T03:31:10.490Z,84.10
2023-10-14T03:33:37.762Z,84.00
2023-10-14T03:36:05.513Z,84.30
2023-10-14T03:38:33.551Z,83.30
2023-10-14T03:41:03.227Z,83.50
2023-10-14T03:43:31.841Z,83.80
2023-10-14T03:45:59.017Z,84.30
2023-10-14T03:48:26.044Z,84.50
2023-10-14T03:50:53.104Z,84.50
2023-10-14T03:53:20.188Z,84.20
2023-10-14T03:55:47.219Z,84.50
2023-10-14T03:58:15.735Z,85.40
2023-10-14T04:00:42.847Z,85.80
2023-10-14T04:03:10.833Z,85.60
2023-10-14T04:05:38.320Z,85.60
2023-10-14T04:08:06.270Z,86.10
2023-10-14T04:10:33.355Z,86.10
2023-10-14T04:13:00.464Z,86.40
2023-10-14T04:15:29.043Z,86.80
2023-10-14T04:17:56.523Z,86.20
2023-10-14T04:20:23.963Z,86.70
2023-10-14T04:22:51.102Z,85.70
2023-10-14T04:25:18.200Z,85.40
2023-10-14T04:27:47.612Z,86.20
2023-10-14T04:30:15.365Z,86.10
2023-10-14T04:32:43.927Z,85.80
2023-10-14T04:35:12.374Z,85.70
2023-10-14T04:37:40.674Z,85.50
2023-10-14T04:40:08.792Z,86.20
2023-10-14T04:42:35.924Z,86.10
2023-10-14T04:45:07.799Z,86.40
2023-10-14T04:47:35.171Z,86.70
2023-10-14T04:50:07.643Z,86.60
2023-10-14T04:52:34.988Z,86.60
2023-10-14T04:55:02.255Z,87.10
2023-10-14T04:57:29.406Z,87.30
2023-10-14T04:59:56.613Z,86.50
2023-10-14T05:02:24.000Z,86.80
2023-10-14T05:04:52.051Z,87.60
2023-10-14T05:07:20.828Z,87.20
2023-10-14T05:09:48.754Z,87.70
2023-10-14T05:12:16.409Z,87.80
2023-10-14T05:14:43.496Z,87.00
2023-10-14T05:17:10.727Z,87.10
2023-10-14T05:19:38.056Z,87.60
2023-10-14T05:22:05.154Z,87.20
2023-10-14T05:24:33.567Z,87.10
2023-10-14T05:27:00.737Z,87.20
2023-10-14T05:29:29.052Z,87.50
2023-10-14T05:31:57.247Z,87.30
2023-10-14T05:34:24.356Z,87.30
2023-10-14T05:36:51.816Z,87.20
2023-10-14T05:39:18.949Z,87.20
2023-10-14T05:41:47.367Z,88.10
2023-10-14T05:44:14.461Z,87.10
2023-10-14T05:46:41.669Z,86.50
2023-10-14T05:49:09.368Z,86.70
2023-10-14T05:51:36.791Z,86.20
2023-10-14T05:54:04.150Z,86.00
2023-10-14T05:56:31.298Z,86.20
2023-10-14T05:58:59.760Z,87.40
2023-10-14T06:01:26.976Z,87.80
2023-10-14T06:03:54.167Z,88.70
2023-10-14T06:06:21.292Z,88.20
2023-10-14T06:08:48.826Z,89.20
2023-10-14T06:11:16.616Z,88.30
2023-10-14T06:13:44.061Z,88.60
2023-10-14T06:16:14.173Z,88.40
2023-10-14T06:18:42.702Z,88.00
2023-10-14T06:21:09.941Z,89.10
2023-10-14T06:23:37.072Z,88.70
2023-10-14T06:26:04.243Z,88.00
2023-10-14T06:28:31.343Z,88.00
2023-10-14T06:30:58.574Z,87.30
2023-10-14T06:33:27.060Z,86.90
2023-10-14T06:35:54.526Z,86.70
2023-10-14T06:38:21.626Z,86.90
2023-10-14T06:40:48.800Z,87.30
2023-10-14T06:43:15.829Z,87.50
2023-10-14T06:45:42.856Z,86.10
2023-10-14T06:48:09.846Z,84.40
2023-10-14T06:50:38.647Z,83.20
2023-10-14T06:53:05.855Z,83.20
2023-10-14T06:55:32.953Z,85.00
2023-10-14T06:58:00.137Z,85.90
2023-10-14T07:00:27.251Z,87.30
2023-10-14T07:02:54.552Z,88.30
2023-10-14T07:05:21.851Z,87.00
2023-10-14T07:07:50.371Z,86.30
2023-10-14T07:10:17.774Z,84.90
2023-10-14T07:12:45.034Z,83.60
2023-10-14T07:15:12.117Z,83.20
2023-10-14T07:17:40.157Z,82.00
2023-10-14T07:20:09.295Z,81.20
2023-10-14T07:22:36.433Z,80.30
2023-10-14T07:25:05.503Z,80.00
2023-10-14T07:27:32.666Z,79.00
2023-10-14T07:29:59.886Z,79.50
2023-10-14T07:32:27.105Z,79.40
2023-10-14T07:34:54.246Z,80.40
2023-10-14T07:37:21.556Z,79.30
2023-10-14T07:39:48.842Z,78.40
2023-10-14T07:42:17.254Z,77.70
2023-10-14T07:44:44.339Z,77.90
2023-10-14T07:47:11.516Z,78.00
2023-10-14T07:49:38.638Z,76.70
2023-10-14T07:52:05.794Z,76.60
2023-10-14T07:54:32.900Z,77.70
2023-10-14T07:56:59.979Z,76.00
2023-10-14T07:59:31.431Z,76.90
2023-10-14T08:01:58.856Z,75.90
2023-10-14T08:04:26.230Z,77.70
2023-10-14T08:06:53.451Z,75.60
2023-10-14T08:09:20.608Z,74.40
2023-10-14T08:11:47.723Z,73.40
2023-10-14T08:14:14.746Z,73.90
2023-10-14T08:16:43.385Z,74.80
2023-10-14T08:19:10.578Z,71.10
2023-10-14T08:21:37.732Z,72.20
2023-10-14T08:24:05.094Z,71.60
2023-10-14T08:26:32.765Z,73.70
2023-10-14T08:28:59.895Z,75.30
2023-10-14T08:31:27.887Z,74.00
2023-10-14T08:34:05.326Z,74.80
2023-10-14T08:36:32.384Z,73.00
2023-10-14T08:38:59.611Z,72.90
2023-10-14T08:41:27.840Z,72.30
2023-10-14T08:43:57.044Z,70.60
2023-10-14T08:46:26.275Z,70.80
2023-10-14T08:48:53.831Z,70.10
2023-10-14T08:51:25.287Z,68.00
2023-10-14T08:53:56.521Z,67.20
2023-10-14T08:56:23.933Z,68.40
2023-10-14T08:58:51.147Z,69.10
2023-10-14T09:01:20.669Z,71.00
2023-10-14T09:03:52.989Z,71.20
2023-10-14T09:06:27.693Z,71.50
2023-10-14T09:08:56.737Z,71.90
2023-10-14T09:11:40.373Z,72.00
2023-10-14T09:14:12.866Z,70.60
2023-10-14T09:16:45.495Z,70.40
2023-10-14T09:19:12.690Z,70.90
2023-10-14T09:21:45.063Z,70.20
2023-10-14T09:24:12.386Z,69.70
2023-10-14T09:26:40.075Z,68.60
2023-10-14T09:29:07.619Z,68.90
2023-10-14T09:31:38.039Z,69.10
2023-10-14T09:34:05.496Z,66.70
2023-10-14T09:36:35.977Z,66.20
2023-10-14T09:39:08.562Z,66.70
2023-10-14T09:41:35.945Z,63.10
2023-10-14T09:44:06.646Z,61.30
2023-10-14T09:46:35.557Z,61.80
2023-10-14T09:49:02.953Z,60.20
2023-10-14T09:51:32.556Z,60.90
2023-10-14T09:54:00.280Z,62.40
2023-10-14T09:56:40.491Z,62.20
2023-10-14T09:59:11.697Z,61.60
2023-10-14T10:01:38.958Z,60.80
2023-10-14T10:04:11.059Z,59.30
2023-10-14T10:06:48.259Z,57.30
2023-10-14T10:09:31.843Z,57.90
2023-10-14T10:12:01.267Z,57.90
2023-10-14T10:14:28.328Z,57.00
2023-10-14T10:16:58.748Z,57.00
2023-10-14T10:20:05.234Z,57.80
2023-10-14T10:22:40.128Z,58.90
2023-10-14T10:25:08.368Z,58.90
2023-10-14T10:27:36.663Z,59.20
2023-10-14T10:30:05.836Z,56.50
2023-10-14T10:32:33.627Z,55.00
2023-10-14T10:35:11.633Z,53.70
2023-10-14T10:37:41.968Z,52.70
2023-10-14T10:40:10.597Z,51.60
2023-10-14T10:42:40.281Z,51.90
2023-10-14T10:45:08.341Z,52.00
2023-10-14T10:47:45.049Z,50.50
2023-10-14T10:50:15.781Z,49.90
2023-10-14T10:52:43.072Z,48.70
2023-10-14T10:55:10.428Z,50.20
2023-10-14T10:57:40.316Z,52.00
2023-10-14T11:00:08.702Z,52.10
2023-10-14T11:02:35.950Z,51.20
2023-10-14T11:05:04.567Z,51.70
2023-10-14T11:07:31.586Z,53.20
2023-10-14T11:09:58.724Z,63.30
2023-10-14T11:12:25.571Z,58.70
2023-10-14T11:14:53.832Z,57.20
2023-10-14T11:19:50.183Z,57.20
2023-10-14T11:22:17.192Z,51.70
2023-10-14T11:24:44.504Z,65.00
2023-10-14T11:27:12.000Z,52.70
2023-10-14T11:29:41.862Z,52.00
2023-10-14T11:32:10.834Z,50.10
2023-10-14T11:34:38.053Z,52.10
2023-10-14T11:37:07.914Z,52.40
2023-10-14T11:39:36.181Z,53.10
2023-10-14T11:42:03.216Z,52.60
2023-10-14T11:44:30.435Z,52.20
2023-10-14T11:46:57.812Z,50.60
2023-10-14T11:49:26.752Z,50.40
2023-10-14T11:51:54.329Z,49.60
2023-10-14T11:54:21.450Z,49.10
2023-10-14T11:56:48.368Z,49.40
2023-10-14T11:59:15.271Z,49.80
2023-10-14T12:01:42.447Z,49.90
2023-10-14T12:04:09.410Z,50.30
2023-10-14T12:06:37.941Z,50.10
2023-10-14T12:09:05.492Z,49.30
2023-10-14T12:11:32.639Z,48.10
2023-10-14T12:13:59.601Z,47.60
2023-10-14T12:16:26.903Z,49.20
2023-10-14T12:18:53.908Z,48.60
2023-10-14T12:21:20.902Z,47.60
2023-10-14T12:23:49.453Z,49.50
2023-10-14T12:28:46.180Z,46.70
2023-10-14T12:31:13.298Z,47.70
2023-10-14T12:33:40.475Z,49.50
2023-10-14T12:36:08.000Z,49.40
2023-10-14T12:38:35.140Z,50.70
2023-10-14T12:41:03.708Z,50.20
2023-10-14T12:43:30.597Z,50.00
2023-10-14T12:45:58.069Z,48.60
2023-10-14T12:48:24.960Z,48.20
2023-10-14T12:50:51.863Z,48.60
2023-10-14T12:53:18.958Z,48.50
2023-10-14T12:55:45.831Z,49.10
2023-10-14T12:58:14.484Z,47.20
2023-10-14T13:00:41.644Z,46.40
2023-10-14T13:03:08.650Z,45.90
2023-10-14T13:05:35.787Z,46.30
2023-10-14T13:08:03.420Z,47.10
2023-10-14T13:10:30.556Z,47.40
2023-10-14T13:12:59.032Z,48.30
2023-10-14T13:15:29.622Z,48.30
2023-10-14T13:17:57.989Z,48.50
2023-10-14T13:20:26.104Z,49.10
2023-10-14T13:22:54.033Z,51.50
2023-10-14T13:25:20.990Z,48.20
2023-10-14T13:27:48.090Z,47.70
2023-10-14T13:30:15.057Z,47.80
2023-10-14T13:32:43.648Z,51.40
2023-10-14T13:35:10.762Z,52.40
2023-10-14T13:37:37.878Z,53.00
2023-10-14T13:40:05.965Z,51.00
2023-10-14T13:42:32.955Z,53.00
2023-10-14T13:44:59.931Z,51.00
2023-10-14T13:47:26.867Z,54.00
2023-10-14T13:49:55.433Z,54.10
2023-10-14T13:52:22.457Z,53.20
2023-10-14T13:54:49.416Z,51.70
2023-10-14T13:57:16.493Z,56.10
2023-10-14T13:59:43.497Z,53.30
2023-10-14T14:02:10.428Z,57.00
2023-10-14T14:04:37.515Z,55.50
2023-10-14T14:07:05.892Z,53.90
2023-10-14T14:09:32.789Z,52.80
2023-10-14T14:11:59.873Z,53.50
2023-10-14T14:14:27.002Z,54.20
2023-10-14T14:16:54.345Z,57.90
2023-10-14T14:19:22.434Z,53.90
2023-10-14T14:21:49.839Z,59.40
2023-10-14T14:24:18.125Z,59.60
2023-10-14T14:26:45.149Z,58.40
2023-10-14T14:29:12.079Z,57.90
2023-10-14T14:31:39.103Z,54.80
2023-10-14T14:34:06.287Z,50.80
2023-10-14T14:36:33.284Z,54.20
2023-10-14T14:39:00.182Z,57.40
2023-10-14T14:41:28.550Z,59.20
2023-10-14T14:43:55.469Z,57.40
2023-10-14T14:46:22.588Z,58.00
2023-10-14T14:48:49.688Z,58.10
2023-10-14T14:51:16.937Z,59.00
2023-10-14T14:53:43.819Z,59.80
2023-10-14T14:56:11.384Z,59.90
2023-10-14T14:58:39.870Z,58.60
2023-10-14T15:01:15.084Z,58.70
2023-10-14T15:03:42.164Z,55.40
2023-10-14T15:06:09.238Z,57.50
2023-10-14T15:08:36.303Z,59.30
2023-10-14T15:11:03.265Z,59.70
2023-10-14T15:13:30.282Z,60.10
2023-10-14T15:15:58.727Z,59.60
2023-10-14T15:18:25.838Z,59.30
2023-10-14T15:20:52.768Z,60.30
2023-10-14T15:23:19.894Z,60.10
2023-10-14T15:25:46.923Z,61.00
2023-10-14T15:28:13.930Z,62.20
2023-10-14T15:30:40.986Z,61.30
2023-10-14T15:33:09.471Z,62.20
2023-10-14T15:35:36.900Z,62.90
2023-10-14T15:38:04.820Z,63.80
2023-10-14T15:40:33.876Z,62.70
2023-10-14T15:43:00.818Z,62.80
2023-10-14T15:45:28.180Z,67.00
2023-10-14T15:47:57.476Z,67.40
2023-10-14T15:50:26.926Z,68.30
2023-10-14T15:52:55.587Z,68.40
2023-10-14T15:55:24.329Z,68.20
2023-10-14T15:57:52.272Z,68.00
2023-10-14T16:00:19.889Z,67.60
2023-10-14T16:02:46.881Z,68.40
2023-10-14T16:05:13.930Z,68.30
2023-10-14T16:07:42.351Z,68.20
2023-10-14T16:10:09.995Z,69.60
2023-10-14T16:12:36.888Z,71.60
2023-10-14T16:15:04.971Z,69.60
2023-10-14T16:17:31.924Z,65.00
2023-10-14T16:19:58.863Z,66.70
2023-10-14T16:22:26.062Z,67.90
2023-10-14T16:24:54.414Z,68.60
2023-10-14T16:27:21.354Z,69.20
2023-10-14T16:29:48.421Z,69.30
2023-10-14T16:32:15.434Z,69.80
2023-10-14T16:34:42.391Z,70.50
2023-10-14T16:37:09.534Z,71.40
2023-10-14T16:39:36.566Z,71.90
2023-10-14T16:42:04.942Z,72.20
2023-10-14T16:44:32.004Z,72.50
2023-10-14T16:46:59.091Z,73.40
2023-10-14T16:49:30.348Z,73.30
2023-10-14T16:51:57.602Z,74.10
2023-10-14T16:54:24.650Z,74.90
2023-10-14T16:56:51.729Z,75.30
2023-10-14T16:59:20.434Z,77.20
2023-10-14T17:01:47.773Z,78.90
2023-10-14T17:04:14.751Z,80.30
2023-10-14T17:06:41.836Z,80.30
2023-10-14T17:09:08.972Z,79.70
2023-10-14T17:11:35.826Z,80.80
2023-10-14T17:14:02.998Z,82.30
2023-10-14T17:16:31.357Z,83.70
2023-10-14T17:18:58.375Z,84.00
2023-10-14T17:21:25.428Z,83.60
2023-10-14T17:23:52.353Z,83.70
2023-10-14T17:26:19.256Z,85.00
2023-10-14T17:28:47.035Z,85.90
2023-10-14T17:31:14.081Z,89.60
2023-10-14T17:33:42.440Z,88.40
2023-10-14T17:36:11.163Z,89.60
2023-10-14T17:38:38.232Z,90.00
2023-10-14T17:41:05.088Z,88.30
2023-10-14T17:43:32.160Z,87.50
2023-10-14T17:45:59.100Z,87.60
2023-10-14T17:48:26.003Z,89.20
2023-10-14T17:50:54.360Z,89.70
2023-10-14T17:53:21.281Z,90.40
2023-10-14T17:55:48.177Z,90.50
2023-10-14T17:58:16.434Z,91.30
2023-10-14T18:00:43.868Z,92.50
2023-10-14T18:03:11.606Z,93.30
2023-10-14T18:05:41.392Z,93.40
2023-10-14T18:08:09.688Z,95.80
2023-10-14T18:10:37.371Z,99.90
2023-10-14T18:13:05.448Z,99.90
2023-10-14T18:15:32.599Z,99.90
2023-10-14T18:18:00.329Z,99.90
2023-10-14T18:20:27.469Z,99.90
2023-10-14T18:22:55.537Z,99.90
2023-10-14T18:25:26.022Z,99.90
2023-10-14T18:27:53.106Z,99.90
2023-10-14T18:30:20.473Z,99.90
2023-10-14T18:32:48.304Z,99.90
2023-10-14T18:35:16.003Z,99.90
2023-10-14T18:37:44.247Z,99.90
2023-10-14T18:40:12.602Z,99.90
2023-10-14T18:42:42.046Z,99.90
2023-10-14T18:45:10.205Z,99.90
2023-10-14T18:47:37.535Z,99.90
2023-10-14T18:50:05.440Z,99.90
2023-10-14T18:52:32.545Z,99.90
2023-10-14T18:54:59.642Z,99.90
2023-10-14T18:57:27.043Z,99.90
2023-10-14T18:59:55.436Z,99.90
2023-10-14T19:02:23.928Z,99.90
2023-10-14T19:04:51.124Z,99.90
2023-10-14T19:07:18.207Z,99.90
2023-10-14T19:09:45.310Z,99.90
2023-10-14T19:12:12.350Z,99.90
2023-10-14T19:14:48.508Z,99.90
2023-10-14T19:17:17.695Z,99.90
2023-10-14T19:19:44.982Z,99.90
2023-10-14T19:22:12.115Z,99.90
2023-10-14T19:24:39.200Z,99.90
2023-10-14T19:27:06.280Z,99.90
2023-10-14T19:29:33.346Z,99.90
2023-10-14T19:32:00.511Z,99.90
2023-10-14T19:34:29.016Z,99.90
2023-10-14T19:36:56.127Z,99.90
2023-10-14T19:39:23.540Z,99.90
2023-10-14T19:41:50.975Z,99.90
2023-10-14T19:44:18.109Z,99.90
2023-10-14T19:46:45.208Z,99.90
2023-10-14T19:49:12.707Z,99.90
2023-10-14T19:51:41.293Z,99.90
2023-10-14T19:54:08.403Z,99.90
2023-10-14T19:56:35.447Z,99.90
2023-10-14T19:59:02.542Z,99.90
2023-10-14T20:01:29.774Z,99.90
2023-10-14T20:03:57.055Z,99.90
2023-10-14T20:06:24.382Z,99.90
2023-10-14T20:08:52.726Z,99.90
2023-10-14T20:11:19.834Z,99.90
2023-10-14T20:13:47.487Z,99.90
2023-10-14T20:16:14.928Z,99.90
2023-10-14T20:18:42.068Z,99.90
2023-10-14T20:21:09.233Z,99.90
2023-10-14T20:23:36.417Z,99.90
2023-10-14T20:26:06.075Z,99.90
2023-10-14T20:28:33.197Z,99.90
2023-10-14T20:31:00.320Z,99.90
2023-10-14T20:33:27.791Z,99.90
2023-10-14T20:35:55.233Z,99.90
2023-10-14T20:38:22.395Z,99.90
2023-10-14T20:40:49.577Z,99.90
2023-10-14T20:43:18.154Z,99.90
2023-10-14T20:45:45.429Z,99.90
2023-10-14T20:48:12.859Z,99.90
2023-10-14T20:50:40.340Z,99.90
2023-10-14T20:53:08.105Z,99.90
2023-10-14T20:55:36.091Z,99.90
2023-10-14T20:58:05.494Z,99.90
2023-10-14T21:00:35.378Z,99.90
2023-10-14T21:03:05.227Z,99.90
2023-10-14T21:05:32.343Z,99.90
2023-10-14T21:07:59.634Z,99.90
2023-10-14T21:10:29.171Z,99.90
2023-10-14T21:12:56.289Z,99.90
2023-10-14T21:15:23.436Z,99.90
2023-10-14T21:17:51.856Z,99.90
2023-10-14T21:20:18.914Z,99.90
2023-10-14T21:22:46.201Z,99.90
2023-10-14T21:25:13.666Z,99.90
2023-10-14T21:27:41.411Z,99.90
2023-10-14T21:30:09.976Z,98.40
2023-10-14T21:32:37.439Z,98.50
2023-10-14T21:35:06.678Z,96.30
2023-10-14T21:37:33.768Z,94.60
2023-10-14T21:40:01.704Z,96.30
2023-10-14T21:42:30.196Z,93.40
2023-10-14T21:44:57.818Z,93.70
2023-10-14T21:47:25.096Z,90.90
2023-10-14T21:49:52.407Z,89.40
2023-10-14T21:52:21.344Z,90.30
2023-10-14T21:54:48.997Z,87.70
2023-10-14T21:57:16.622Z,91.20
2023-10-14T21:59:44.521Z,93.60
2023-10-14T22:02:12.168Z,91.60
2023-10-14T22:04:39.943Z,90.10
2023-10-14T22:07:07.625Z,90.80
2023-10-14T22:09:36.638Z,90.00
2023-10-14T22:12:05.305Z,89.00
2023-10-14T22:14:32.910Z,88.30
2023-10-14T22:17:00.546Z,86.30
2023-10-14T22:19:28.541Z,85.60
2023-10-14T22:21:56.236Z,88.60
2023-10-14T22:24:24.033Z,85.80
2023-10-14T22:26:53.264Z,84.30
2023-10-14T22:29:20.980Z,83.70
2023-10-14T22:31:48.333Z,84.00
2023-10-14T22:34:15.476Z,85.10
2023-10-14T22:36:42.548Z,80.60
2023-10-14T22:39:09.743Z,81.80
2023-10-14T22:41:36.820Z,86.10
2023-10-14T22:44:05.836Z,87.70
2023-10-14T22:46:33.090Z,90.20
2023-10-14T22:49:00.302Z,92.70
2023-10-14T22:51:27.374Z,93.20
2023-10-14T22:53:54.526Z,89.40
2023-10-14T22:56:21.632Z,89.10
2023-10-14T22:58:48.861Z,91.90
2023-10-14T23:01:18.336Z,93.70
2023-10-14T23:03:46.138Z,93.90
2023-10-14T23:06:19.414Z,89.00
2023-10-14T23:08:46.600Z,90.40
2023-10-14T23:11:13.747Z,90.30
2023-10-14T23:13:40.847Z,90.80
2023-10-14T23:16:08.054Z,91.10
2023-10-14T23:18:36.470Z,91.30
2023-10-14T23:21:03.716Z,91.40
2023-10-14T23:23:30.839Z,91.40
2023-10-14T23:25:57.967Z,91.10
2023-10-14T23:28:25.152Z,90.00
2023-10-14T23:30:52.376Z,89.80
2023-10-14T23:33:19.599Z,91.40
2023-10-14T23:35:48.220Z,91.60
2023-10-14T23:38:15.364Z,90.90
2023-10-14T23:40:42.520Z,90.00
2023-10-14T23:43:09.671Z,89.00
2023-10-14T23:45:36.980Z,89.60
2023-10-14T23:48:04.910Z,90.10
2023-10-14T23:50:32.581Z,89.20
2023-10-14T23:53:01.005Z,89.60
2023-10-14T23:55:28.470Z,90.30
2023-10-14T23:57:55.802Z,90.40
